sensor_id;sensor_type;location;lat;lon;timestamp;pressure;altitude;pressure_sealevel;temperature;humidity
3178;BME280;38141;42.666;23.344;2023-10-19T00:02:11;94806.28;;;7.63;100.00
3178;BME280;38141;42.666;23.344;2023-10-19T00:04:40;94799.59;;;7.53;100.00
3178;BME280;38141;42.666;23.344;2023-10-19T00:07:08;94790.44;;;7.57;100.00
3178;BME280;38141;42.666;23.344;2023-10-19T00:09:41;94789.72;;;7.87;100.00
3178;BME280;38141;42.666;23.344;2023-10-19T00:12:11;94778.38;;;8.00;100.00
3178;BME280;38141;42.666;23.344;2023-10-19T00:14:41;94767.13;;;7.95;100.00
3178;BME280;38141;42.666;23.344;2023-10-19T00:17:07;94775.28;;;7.98;100.00
3178;BME280;38141;42.666;23.344;2023-10-19T00:19:38;94765.94;;;7.92;100.00
3178;BME280;38141;42.666;23.344;2023-10-19T00:22:07;94760.53;;;7.89;100.00
3178;BME280;38141;42.666;23.344;2023-10-19T00:24:41;94762.66;;;7.76;100.00
3178;BME280;38141;42.666;23.344;2023-10-19T00:27:09;94765.94;;;7.66;100.00
3178;BME280;38141;42.666;23.344;2023-10-19T00:29:42;94766.00;;;7.70;100.00
3178;BME280;38141;42.666;23.344;2023-10-19T00:32:15;94756.75;;;7.67;100.00
3178;BME280;38141;42.666;23.344;2023-10-19T00:34:44;94754.06;;;7.67;100.00
3178;BME280;38141;42.666;23.344;2023-10-19T00:37:18;94762.31;;;7.55;100.00
3178;BME280;38141;42.666;23.344;2023-10-19T00:39:47;94764.53;;;7.49;100.00
3178;BME280;38141;42.666;23.344;2023-10-19T00:42:22;94766.47;;;7.49;100.00
3178;BME280;38141;42.666;23.344;2023-10-19T00:44:51;94752.44;;;7.63;100.00
3178;BME280;38141;42.666;23.344;2023-10-19T00:47:26;94743.41;;;7.51;100.00
3178;BME280;38141;42.666;23.344;2023-10-19T00:50:00;94751.84;;;7.50;100.00
3178;BME280;38141;42.666;23.344;2023-10-19T00:52:31;94746.44;;;7.50;100.00
3178;BME280;38141;42.666;23.344;2023-10-19T00:55:07;94749.66;;;7.59;100.00
3178;BME280;38141;42.666;23.344;2023-10-19T00:57:35;94749.09;;;7.46;100.00
3178;BME280;38141;42.666;23.344;2023-10-19T01:00:07;94751.63;;;7.36;100.00
3178;BME280;38141;42.666;23.344;2023-10-19T01:02:38;94753.94;;;7.60;100.00
3178;BME280;38141;42.666;23.344;2023-10-19T01:05:14;94747.72;;;7.33;100.00
3178;BME280;38141;42.666;23.344;2023-10-19T01:07:47;94749.28;;;7.34;100.00
3178;BME280;38141;42.666;23.344;2023-10-19T01:10:22;94753.41;;;7.28;100.00
3178;BME280;38141;42.666;23.344;2023-10-19T01:12:50;94756.00;;;7.44;100.00
3178;BME280;38141;42.666;23.344;2023-10-19T01:15:22;94741.69;;;7.40;100.00
3178;BME280;38141;42.666;23.344;2023-10-19T01:17:56;94740.09;;;7.35;100.00
3178;BME280;38141;42.666;23.344;2023-10-19T01:20:25;94759.72;;;7.36;100.00
3178;BME280;38141;42.666;23.344;2023-10-19T01:23:14;94756.84;;;7.25;100.00
3178;BME280;38141;42.666;23.344;2023-10-19T01:25:53;94764.66;;;7.34;100.00
3178;BME280;38141;42.666;23.344;2023-10-19T01:28:31;94754.50;;;7.24;100.00
3178;BME280;38141;42.666;23.344;2023-10-19T01:31:11;94747.44;;;7.15;100.00
3178;BME280;38141;42.666;23.344;2023-10-19T01:33:43;94743.47;;;7.32;100.00
3178;BME280;38141;42.666;23.344;2023-10-19T01:36:11;94754.25;;;7.32;100.00
3178;BME280;38141;42.666;23.344;2023-10-19T01:38:41;94764.72;;;7.37;100.00
3178;BME280;38141;42.666;23.344;2023-10-19T01:41:08;94746.84;;;7.26;100.00
3178;BME280;38141;42.666;23.344;2023-10-19T01:43:40;94749.28;;;7.34;100.00
3178;BME280;38141;42.666;23.344;2023-10-19T01:46:07;94761.97;;;7.34;100.00
3178;BME280;38141;42.666;23.344;2023-10-19T01:48:38;94759.22;;;7.30;100.00
3178;BME280;38141;42.666;23.344;2023-10-19T01:51:06;94759.47;;;7.44;100.00
3178;BME280;38141;42.666;23.344;2023-10-19T01:53:36;94761.41;;;7.47;100.00
3178;BME280;38141;42.666;23.344;2023-10-19T01:56:06;94767.09;;;7.42;100.00
3178;BME280;38141;42.666;23.344;2023-10-19T01:58:37;94768.22;;;7.64;100.00
3178;BME280;38141;42.666;23.344;2023-10-19T02:01:03;94754.44;;;7.69;100.00
3178;BME280;38141;42.666;23.344;2023-10-19T02:03:35;94760.81;;;7.84;100.00
3178;BME280;38141;42.666;23.344;2023-10-19T02:06:01;94732.34;;;7.56;100.00
3178;BME280;38141;42.666;23.344;2023-10-19T02:08:36;94746.41;;;7.73;100.00
3178;BME280;38141;42.666;23.344;2023-10-19T02:11:07;94747.09;;;7.66;100.00
3178;BME280;38141;42.666;23.344;2023-10-19T02:13:45;94737.28;;;7.54;100.00
3178;BME280;38141;42.666;23.344;2023-10-19T02:16:13;94762.69;;;7.80;100.00
3178;BME280;38141;42.666;23.344;2023-10-19T02:18:43;94765.34;;;7.76;100.00
3178;BME280;38141;42.666;23.344;2023-10-19T02:21:10;94768.75;;;7.73;100.00
3178;BME280;38141;42.666;23.344;2023-10-19T02:23:39;94763.00;;;7.75;100.00
3178;BME280;38141;42.666;23.344;2023-10-19T02:26:08;94765.00;;;7.81;100.00
3178;BME280;38141;42.666;23.344;2023-10-19T02:28:39;94758.41;;;7.75;100.00
3178;BME280;38141;42.666;23.344;2023-10-19T02:31:05;94759.88;;;7.73;100.00
3178;BME280;38141;42.666;23.344;2023-10-19T02:33:44;94750.41;;;7.82;100.00
3178;BME280;38141;42.666;23.344;2023-10-19T02:36:12;94756.34;;;7.69;100.00
3178;BME280;38141;42.666;23.344;2023-10-19T02:38:44;94757.13;;;7.69;100.00
3178;BME280;38141;42.666;23.344;2023-10-19T02:41:15;94762.22;;;7.74;100.00
3178;BME280;38141;42.666;23.344;2023-10-19T02:43:43;94755.34;;;7.77;100.00
3178;BME280;38141;42.666;23.344;2023-10-19T02:46:11;94760.78;;;7.80;100.00
3178;BME280;38141;42.666;23.344;2023-10-19T02:48:39;94757.53;;;7.68;100.00
3178;BME280;38141;42.666;23.344;2023-10-19T02:51:10;94771.72;;;7.68;100.00
3178;BME280;38141;42.666;23.344;2023-10-19T02:53:38;94755.47;;;7.87;100.00
3178;BME280;38141;42.666;23.344;2023-10-19T02:56:11;94756.25;;;7.88;100.00
3178;BME280;38141;42.666;23.344;2023-10-19T02:58:42;94758.97;;;7.62;100.00
3178;BME280;38141;42.666;23.344;2023-10-19T03:01:13;94756.00;;;7.44;100.00
3178;BME280;38141;42.666;23.344;2023-10-19T03:03:48;94752.28;;;7.52;100.00
3178;BME280;38141;42.666;23.344;2023-10-19T03:06:18;94754.72;;;7.60;100.00
3178;BME280;38141;42.666;23.344;2023-10-19T03:08:46;94749.31;;;7.60;100.00
3178;BME280;38141;42.666;23.344;2023-10-19T03:11:13;94742.59;;;7.47;100.00
3178;BME280;38141;42.666;23.344;2023-10-19T03:13:43;94749.09;;;7.46;100.00
3178;BME280;38141;42.666;23.344;2023-10-19T03:16:09;94743.63;;;7.39;100.00
3178;BME280;38141;42.666;23.344;2023-10-19T03:18:36;94748.97;;;7.62;100.00
3178;BME280;38141;42.666;23.344;2023-10-19T03:21:03;94741.75;;;7.43;100.00
3178;BME280;38141;42.666;23.344;2023-10-19T03:23:30;94749.47;;;7.45;100.00
3178;BME280;38141;42.666;23.344;2023-10-19T03:26:00;94744.44;;;7.43;100.00
3178;BME280;38141;42.666;23.344;2023-10-19T03:28:49;94740.53;;;7.41;100.00
3178;BME280;38141;42.666;23.344;2023-10-19T03:31:21;94758.94;;;7.35;100.00
3178;BME280;38141;42.666;23.344;2023-10-19T03:33:48;94751.25;;;7.37;100.00
3178;BME280;38141;42.666;23.344;2023-10-19T03:36:20;94752.09;;;7.41;100.00
3178;BME280;38141;42.666;23.344;2023-10-19T03:38:48;94741.84;;;7.50;100.00
3178;BME280;38141;42.666;23.344;2023-10-19T03:41:16;94738.00;;;7.25;100.00
3178;BME280;38141;42.666;23.344;2023-10-19T03:43:49;94738.66;;;7.19;100.00
3178;BME280;38141;42.666;23.344;2023-10-19T03:46:17;94739.44;;;7.19;100.00
3178;BME280;38141;42.666;23.344;2023-10-19T03:48:55;94739.31;;;7.35;100.00
3178;BME280;38141;42.666;23.344;2023-10-19T03:51:25;94730.34;;;7.27;100.00
3178;BME280;38141;42.666;23.344;2023-10-19T03:53:52;94728.91;;;7.10;100.00
3178;BME280;38141;42.666;23.344;2023-10-19T03:56:24;94732.41;;;7.37;100.00
3178;BME280;38141;42.666;23.344;2023-10-19T03:58:52;94726.41;;;7.21;100.00
3178;BME280;38141;42.666;23.344;2023-10-19T04:01:19;94720.25;;;7.21;100.00
3178;BME280;38141;42.666;23.344;2023-10-19T04:03:47;94721.38;;;7.20;100.00
3178;BME280;38141;42.666;23.344;2023-10-19T04:06:18;94725.63;;;7.21;100.00
3178;BME280;38141;42.666;23.344;2023-10-19T04:08:46;94726.50;;;7.05;100.00
3178;BME280;38141;42.666;23.344;2023-10-19T04:11:16;94724.06;;;6.97;100.00
3178;BME280;38141;42.666;23.344;2023-10-19T04:13:52;94721.06;;;6.79;100.00
3178;BME280;38141;42.666;23.344;2023-10-19T04:16:20;94732.59;;;6.80;100.00
3178;BME280;38141;42.666;23.344;2023-10-19T04:18:47;94734.72;;;6.90;100.00
3178;BME280;38141;42.666;23.344;2023-10-19T04:21:15;94740.19;;;6.97;100.00
3178;BME280;38141;42.666;23.344;2023-10-19T04:23:42;94745.09;;;7.14;100.00
3178;BME280;38141;42.666;23.344;2023-10-19T04:26:12;94737.22;;;7.02;100.00
3178;BME280;38141;42.666;23.344;2023-10-19T04:28:44;94737.94;;;6.99;100.00
3178;BME280;38141;42.666;23.344;2023-10-19T04:31:19;94723.81;;;6.83;100.00
3178;BME280;38141;42.666;23.344;2023-10-19T04:33:49;94727.09;;;6.95;100.00
3178;BME280;38141;42.666;23.344;2023-10-19T04:36:16;94719.28;;;6.87;100.00
3178;BME280;38141;42.666;23.344;2023-10-19T04:38:46;94723.53;;;6.88;100.00
3178;BME280;38141;42.666;23.344;2023-10-19T04:41:13;94726.34;;;6.95;100.00
3178;BME280;38141;42.666;23.344;2023-10-19T04:43:40;94712.66;;;6.81;100.00
3178;BME280;38141;42.666;23.344;2023-10-19T04:46:15;94720.09;;;6.91;100.00
3178;BME280;38141;42.666;23.344;2023-10-19T04:48:45;94716.19;;;6.85;100.00
3178;BME280;38141;42.666;23.344;2023-10-19T04:51:12;94710.75;;;6.81;100.00
3178;BME280;38141;42.666;23.344;2023-10-19T04:53:39;94706.56;;;6.84;100.00
3178;BME280;38141;42.666;23.344;2023-10-19T04:56:07;94697.09;;;6.70;100.00
3178;BME280;38141;42.666;23.344;2023-10-19T04:58:35;94707.28;;;6.81;100.00
3178;BME280;38141;42.666;23.344;2023-10-19T05:01:02;94698.44;;;6.80;100.00
3178;BME280;38141;42.666;23.344;2023-10-19T05:03:29;94709.72;;;6.89;100.00
3178;BME280;38141;42.666;23.344;2023-10-19T05:05:58;94723.47;;;7.07;100.00
3178;BME280;38141;42.666;23.344;2023-10-19T05:08:25;94711.16;;;7.29;100.00
3178;BME280;38141;42.666;23.344;2023-10-19T05:10:53;94708.69;;;7.20;100.00
3178;BME280;38141;42.666;23.344;2023-10-19T05:13:21;94701.06;;;7.22;100.00
3178;BME280;38141;42.666;23.344;2023-10-19T05:15:48;94713.81;;;7.51;100.00
3178;BME280;38141;42.666;23.344;2023-10-19T05:18:15;94703.91;;;7.59;100.00
3178;BME280;38141;42.666;23.344;2023-10-19T05:20:42;94709.75;;;7.91;100.00
3178;BME280;38141;42.666;23.344;2023-10-19T05:23:10;94704.41;;;8.24;100.00
3178;BME280;38141;42.666;23.344;2023-10-19T05:25:39;94702.41;;;8.84;100.00
3178;BME280;38141;42.666;23.344;2023-10-19T05:28:06;94698.47;;;9.19;100.00
3178;BME280;38141;42.666;23.344;2023-10-19T05:30:35;94688.78;;;9.62;100.00
3178;BME280;38141;42.666;23.344;2023-10-19T05:33:05;94701.38;;;9.98;100.00
3178;BME280;38141;42.666;23.344;2023-10-19T05:35:32;94698.09;;;10.40;100.00
3178;BME280;38141;42.666;23.344;2023-10-19T05:38:06;94707.13;;;10.76;100.00
3178;BME280;38141;42.666;23.344;2023-10-19T05:40:34;94707.19;;;11.11;100.00
3178;BME280;38141;42.666;23.344;2023-10-19T05:43:01;94705.25;;;11.69;100.00
3178;BME280;38141;42.666;23.344;2023-10-19T05:45:29;94707.88;;;12.39;100.00
3178;BME280;38141;42.666;23.344;2023-10-19T05:47:56;94708.91;;;12.70;100.00
3178;BME280;38141;42.666;23.344;2023-10-19T05:50:23;94705.78;;;12.72;100.00
3178;BME280;38141;42.666;23.344;2023-10-19T05:52:50;94713.38;;;13.02;100.00
3178;BME280;38141;42.666;23.344;2023-10-19T05:55:18;94710.00;;;13.46;100.00
3178;BME280;38141;42.666;23.344;2023-10-19T05:57:48;94713.31;;;13.67;100.00
3178;BME280;38141;42.666;23.344;2023-10-19T06:00:16;94721.03;;;13.76;99.62
3178;BME280;38141;42.666;23.344;2023-10-19T06:02:47;94715.09;;;13.88;97.95
3178;BME280;38141;42.666;23.344;2023-10-19T06:05:15;94712.31;;;13.47;97.24
3178;BME280;38141;42.666;23.344;2023-10-19T06:07:43;94717.25;;;13.63;98.49
3178;BME280;38141;42.666;23.344;2023-10-19T06:10:14;94721.75;;;13.84;97.07
3178;BME280;38141;42.666;23.344;2023-10-19T06:12:48;94725.13;;;13.95;96.13
3178;BME280;38141;42.666;23.344;2023-10-19T06:15:16;94723.31;;;13.81;94.81
3178;BME280;38141;42.666;23.344;2023-10-19T06:17:45;94719.25;;;13.55;97.60
3178;BME280;38141;42.666;23.344;2023-10-19T06:20:13;94721.34;;;13.81;97.26
3178;BME280;38141;42.666;23.344;2023-10-19T06:22:50;94710.53;;;13.78;95.99
3178;BME280;38141;42.666;23.344;2023-10-19T06:25:18;94722.88;;;13.38;98.84
3178;BME280;38141;42.666;23.344;2023-10-19T06:27:45;94713.28;;;13.23;96.52
3178;BME280;38141;42.666;23.344;2023-10-19T06:30:15;94716.69;;;13.34;100.00
3178;BME280;38141;42.666;23.344;2023-10-19T06:32:48;94715.88;;;12.68;100.00
3178;BME280;38141;42.666;23.344;2023-10-19T06:35:16;94707.75;;;12.64;100.00
3178;BME280;38141;42.666;23.344;2023-10-19T06:37:43;94714.50;;;12.21;100.00
3178;BME280;38141;42.666;23.344;2023-10-19T06:40:11;94704.06;;;12.09;100.00
3178;BME280;38141;42.666;23.344;2023-10-19T06:42:40;94717.56;;;12.30;100.00
3178;BME280;38141;42.666;23.344;2023-10-19T06:45:08;94712.97;;;12.16;100.00
3178;BME280;38141;42.666;23.344;2023-10-19T06:47:41;94716.00;;;12.32;100.00
3178;BME280;38141;42.666;23.344;2023-10-19T06:50:08;94720.69;;;12.25;100.00
3178;BME280;38141;42.666;23.344;2023-10-19T06:52:36;94728.38;;;12.47;100.00
3178;BME280;38141;42.666;23.344;2023-10-19T06:55:04;94716.22;;;12.80;100.00
3178;BME280;38141;42.666;23.344;2023-10-19T06:57:33;94710.41;;;12.75;100.00
3178;BME280;38141;42.666;23.344;2023-10-19T07:00:00;94706.88;;;12.85;100.00
3178;BME280;38141;42.666;23.344;2023-10-19T07:02:39;94692.66;;;13.29;100.00
3178;BME280;38141;42.666;23.344;2023-10-19T07:05:09;94692.69;;;13.73;99.28
3178;BME280;38141;42.666;23.344;2023-10-19T07:07:39;94698.59;;;13.10;100.00
3178;BME280;38141;42.666;23.344;2023-10-19T07:10:07;94695.88;;;13.17;100.00
3178;BME280;38141;42.666;23.344;2023-10-19T07:12:35;94696.03;;;13.92;99.10
3178;BME280;38141;42.666;23.344;2023-10-19T07:15:03;94698.19;;;14.45;93.35
3178;BME280;38141;42.666;23.344;2023-10-19T07:17:32;94699.59;;;14.60;91.02
3178;BME280;38141;42.666;23.344;2023-10-19T07:20:00;94707.44;;;13.72;96.33
3178;BME280;38141;42.666;23.344;2023-10-19T07:22:31;94700.81;;;14.18;95.66
3178;BME280;38141;42.666;23.344;2023-10-19T07:24:58;94706.53;;;14.27;93.89
3178;BME280;38141;42.666;23.344;2023-10-19T07:27:27;94704.16;;;14.33;94.23
3178;BME280;38141;42.666;23.344;2023-10-19T07:29:54;94703.13;;;14.87;90.28
3178;BME280;38141;42.666;23.344;2023-10-19T07:32:21;94708.66;;;15.64;85.53
3178;BME280;38141;42.666;23.344;2023-10-19T07:34:52;94702.28;;;15.97;80.49
3178;BME280;38141;42.666;23.344;2023-10-19T07:37:21;94715.22;;;16.56;76.28
3178;BME280;38141;42.666;23.344;2023-10-19T07:39:48;94703.31;;;17.06;72.75
3178;BME280;38141;42.666;23.344;2023-10-19T07:42:17;94708.75;;;17.42;68.55
3178;BME280;38141;42.666;23.344;2023-10-19T07:44:45;94713.16;;;17.19;69.98
3178;BME280;38141;42.666;23.344;2023-10-19T07:47:12;94707.19;;;16.69;70.62
3178;BME280;38141;42.666;23.344;2023-10-19T07:49:39;94723.06;;;16.54;72.97
3178;BME280;38141;42.666;23.344;2023-10-19T07:52:07;94726.50;;;16.58;72.33
3178;BME280;38141;42.666;23.344;2023-10-19T07:54:37;94720.09;;;16.88;72.88
3178;BME280;38141;42.666;23.344;2023-10-19T07:57:04;94713.41;;;18.09;67.47
3178;BME280;38141;42.666;23.344;2023-10-19T07:59:32;94714.28;;;19.72;62.51
3178;BME280;38141;42.666;23.344;2023-10-19T08:01:59;94714.66;;;20.34;57.25
3178;BME280;38141;42.666;23.344;2023-10-19T08:04:28;94725.66;;;23.32;49.47
3178;BME280;38141;42.666;23.344;2023-10-19T08:06:55;94727.22;;;29.06;38.03
3178;BME280;38141;42.666;23.344;2023-10-19T08:09:22;94726.69;;;31.43;33.29
3178;BME280;38141;42.666;23.344;2023-10-19T08:11:51;94728.88;;;29.68;35.29
3178;BME280;38141;42.666;23.344;2023-10-19T08:14:21;94731.44;;;32.97;30.31
3178;BME280;38141;42.666;23.344;2023-10-19T08:16:50;94726.44;;;33.84;28.56
3178;BME280;38141;42.666;23.344;2023-10-19T08:19:17;94726.84;;;34.07;29.32
3178;BME280;38141;42.666;23.344;2023-10-19T08:21:45;94729.66;;;34.65;27.47
3178;BME280;38141;42.666;23.344;2023-10-19T08:24:11;94715.19;;;37.28;24.94
3178;BME280;38141;42.666;23.344;2023-10-19T08:26:43;94715.25;;;34.29;27.27
3178;BME280;38141;42.666;23.344;2023-10-19T08:29:12;94710.59;;;30.17;31.61
3178;BME280;38141;42.666;23.344;2023-10-19T08:31:39;94721.25;;;29.57;32.91
3178;BME280;38141;42.666;23.344;2023-10-19T08:34:07;94714.19;;;30.07;31.43
3178;BME280;38141;42.666;23.344;2023-10-19T08:36:35;94720.31;;;30.96;30.81
3178;BME280;38141;42.666;23.344;2023-10-19T08:39:03;94704.94;;;31.25;30.77
3178;BME280;38141;42.666;23.344;2023-10-19T08:41:31;94694.72;;;31.33;30.11
3178;BME280;38141;42.666;23.344;2023-10-19T08:44:00;94708.59;;;31.85;29.97
3178;BME280;38141;42.666;23.344;2023-10-19T08:46:29;94719.50;;;33.34;28.36
3178;BME280;38141;42.666;23.344;2023-10-19T08:48:57;94734.00;;;35.65;25.07
3178;BME280;38141;42.666;23.344;2023-10-19T08:51:25;94716.56;;;32.84;27.35
3178;BME280;38141;42.666;23.344;2023-10-19T08:53:53;94708.25;;;31.94;28.70
3178;BME280;38141;42.666;23.344;2023-10-19T08:56:20;94706.63;;;32.83;27.72
3178;BME280;38141;42.666;23.344;2023-10-19T08:58:50;94719.78;;;35.37;25.52
3178;BME280;38141;42.666;23.344;2023-10-19T09:01:18;94726.63;;;34.76;25.60
3178;BME280;38141;42.666;23.344;2023-10-19T09:03:52;94732.84;;;35.48;26.18
3178;BME280;38141;42.666;23.344;2023-10-19T09:06:20;94726.16;;;32.70;28.13
3178;BME280;38141;42.666;23.344;2023-10-19T09:08:47;94726.94;;;35.12;25.59
3178;BME280;38141;42.666;23.344;2023-10-19T09:11:15;94727.69;;;38.37;22.91
3178;BME280;38141;42.666;23.344;2023-10-19T09:13:45;94715.88;;;40.78;20.66
3178;BME280;38141;42.666;23.344;2023-10-19T09:16:13;94712.94;;;42.72;19.51
3178;BME280;38141;42.666;23.344;2023-10-19T09:18:40;94695.38;;;41.66;19.79
3178;BME280;38141;42.666;23.344;2023-10-19T09:21:09;94668.94;;;36.67;23.69
3178;BME280;38141;42.666;23.344;2023-10-19T09:23:38;94670.91;;;33.77;26.13
3178;BME280;38141;42.666;23.344;2023-10-19T09:26:07;94661.81;;;33.20;27.03
3178;BME280;38141;42.666;23.344;2023-10-19T09:28:35;94654.53;;;31.30;29.21
3178;BME280;38141;42.666;23.344;2023-10-19T09:31:03;94650.53;;;32.40;28.12
3178;BME280;38141;42.666;23.344;2023-10-19T09:33:32;94652.47;;;32.02;28.41
3178;BME280;38141;42.666;23.344;2023-10-19T09:36:00;94633.88;;;31.04;29.55
3178;BME280;38141;42.666;23.344;2023-10-19T09:38:31;94634.31;;;29.92;31.03
3178;BME280;38141;42.666;23.344;2023-10-19T09:40:59;94639.88;;;29.37;31.73
3178;BME280;38141;42.666;23.344;2023-10-19T09:43:37;94622.50;;;28.66;32.22
3178;BME280;38141;42.666;23.344;2023-10-19T09:46:08;94617.00;;;27.75;33.85
3178;BME280;38141;42.666;23.344;2023-10-19T09:48:39;94614.38;;;27.29;34.68
3178;BME280;38141;42.666;23.344;2023-10-19T09:51:08;94619.34;;;27.20;35.00
3178;BME280;38141;42.666;23.344;2023-10-19T09:53:38;94615.34;;;27.52;34.88
3178;BME280;38141;42.666;23.344;2023-10-19T09:56:07;94613.22;;;25.83;37.10
3178;BME280;38141;42.666;23.344;2023-10-19T09:58:41;94611.75;;;27.20;35.54
3178;BME280;38141;42.666;23.344;2023-10-19T10:01:11;94613.59;;;26.11;37.51
3178;BME280;38141;42.666;23.344;2023-10-19T10:03:46;94616.22;;;26.00;37.67
3178;BME280;38141;42.666;23.344;2023-10-19T10:06:15;94599.28;;;26.59;36.79
3178;BME280;38141;42.666;23.344;2023-10-19T10:08:48;94596.13;;;27.23;36.44
3178;BME280;38141;42.666;23.344;2023-10-19T10:11:23;94593.41;;;26.31;36.85
3178;BME280;38141;42.666;23.344;2023-10-19T10:13:52;94601.34;;;26.64;37.36
3178;BME280;38141;42.666;23.344;2023-10-19T10:16:22;94592.41;;;24.65;39.95
3178;BME280;38141;42.666;23.344;2023-10-19T10:18:53;94595.50;;;23.81;41.42
3178;BME280;38141;42.666;23.344;2023-10-19T10:21:22;94595.84;;;25.04;40.17
3178;BME280;38141;42.666;23.344;2023-10-19T10:23:52;94593.31;;;24.32;41.39
3178;BME280;38141;42.666;23.344;2023-10-19T10:26:21;94573.41;;;24.72;40.67
3178;BME280;38141;42.666;23.344;2023-10-19T10:29:08;94571.69;;;26.09;38.79
3178;BME280;38141;42.666;23.344;2023-10-19T10:31:41;94562.41;;;25.72;38.94
3178;BME280;38141;42.666;23.344;2023-10-19T10:34:09;94558.28;;;26.02;39.19
3178;BME280;38141;42.666;23.344;2023-10-19T10:36:57;94556.59;;;25.70;39.33
3178;BME280;38141;42.666;23.344;2023-10-19T10:39:26;94553.50;;;26.74;37.48
3178;BME280;38141;42.666;23.344;2023-10-19T10:41:56;94547.31;;;26.33;38.27
3178;BME280;38141;42.666;23.344;2023-10-19T10:44:39;94539.13;;;26.04;38.92
3178;BME280;38141;42.666;23.344;2023-10-19T10:47:07;94524.63;;;25.19;39.85
3178;BME280;38141;42.666;23.344;2023-10-19T10:49:50;94527.28;;;25.63;39.66
3178;BME280;38141;42.666;23.344;2023-10-19T10:52:24;94521.09;;;25.94;39.28
3178;BME280;38141;42.666;23.344;2023-10-19T10:54:52;94515.41;;;24.93;40.30
3178;BME280;38141;42.666;23.344;2023-10-19T10:57:20;94511.50;;;23.64;43.48
3178;BME280;38141;42.666;23.344;2023-10-19T11:00:00;94515.84;;;24.18;42.66
3178;BME280;38141;42.666;23.344;2023-10-19T11:02:28;94507.88;;;24.49;41.71
3178;BME280;38141;42.666;23.344;2023-10-19T11:05:00;94494.34;;;25.50;40.63
3178;BME280;38141;42.666;23.344;2023-10-19T11:07:28;94492.28;;;25.86;40.24
3178;BME280;38141;42.666;23.344;2023-10-19T11:09:56;94489.97;;;26.50;39.24
3178;BME280;38141;42.666;23.344;2023-10-19T11:12:23;94481.34;;;26.74;38.48
3178;BME280;38141;42.666;23.344;2023-10-19T11:14:55;94481.00;;;25.89;39.86
3178;BME280;38141;42.666;23.344;2023-10-19T11:17:23;94475.44;;;25.89;39.74
3178;BME280;38141;42.666;23.344;2023-10-19T11:19:55;94479.72;;;25.90;39.95
3178;BME280;38141;42.666;23.344;2023-10-19T11:22:23;94481.25;;;25.51;40.96
3178;BME280;38141;42.666;23.344;2023-10-19T11:24:52;94471.66;;;25.66;40.63
3178;BME280;38141;42.666;23.344;2023-10-19T11:27:25;94458.91;;;26.21;39.26
3178;BME280;38141;42.666;23.344;2023-10-19T11:29:56;94454.81;;;26.73;38.61
3178;BME280;38141;42.666;23.344;2023-10-19T11:32:24;94449.72;;;26.66;38.85
3178;BME280;38141;42.666;23.344;2023-10-19T11:34:52;94451.59;;;25.97;39.90
3178;BME280;38141;42.666;23.344;2023-10-19T11:37:19;94450.06;;;25.76;40.89
3178;BME280;38141;42.666;23.344;2023-10-19T11:39:46;94450.00;;;25.30;40.95
3178;BME280;38141;42.666;23.344;2023-10-19T11:42:15;94437.53;;;25.40;40.71
3178;BME280;38141;42.666;23.344;2023-10-19T11:44:48;94433.69;;;24.83;42.00
3178;BME280;38141;42.666;23.344;2023-10-19T11:47:16;94441.97;;;24.33;42.98
3178;BME280;38141;42.666;23.344;2023-10-19T11:49:43;94432.22;;;24.08;43.62
3178;BME280;38141;42.666;23.344;2023-10-19T11:52:10;94422.94;;;24.85;43.52
3178;BME280;38141;42.666;23.344;2023-10-19T11:54:37;94429.19;;;25.00;43.00
3178;BME280;38141;42.666;23.344;2023-10-19T11:57:04;94418.81;;;24.95;42.60
3178;BME280;38141;42.666;23.344;2023-10-19T11:59:31;94425.72;;;25.60;41.85
3178;BME280;38141;42.666;23.344;2023-10-19T12:01:59;94411.69;;;25.49;41.39
3178;BME280;38141;42.666;23.344;2023-10-19T12:04:32;94425.59;;;25.95;40.73
3178;BME280;38141;42.666;23.344;2023-10-19T12:07:01;94418.94;;;25.61;41.56
3178;BME280;38141;42.666;23.344;2023-10-19T12:09:28;94423.25;;;25.07;42.52
3178;BME280;38141;42.666;23.344;2023-10-19T12:11:55;94417.13;;;24.68;42.92
3178;BME280;38141;42.666;23.344;2023-10-19T12:14:22;94413.13;;;24.69;42.90
3178;BME280;38141;42.666;23.344;2023-10-19T12:16:49;94415.66;;;24.52;43.58
3178;BME280;38141;42.666;23.344;2023-10-19T12:19:18;94405.59;;;24.69;43.57
3178;BME280;38141;42.666;23.344;2023-10-19T12:21:45;94393.53;;;24.87;43.13
3178;BME280;38141;42.666;23.344;2023-10-19T12:24:12;94393.53;;;24.87;43.15
3178;BME280;38141;42.666;23.344;2023-10-19T12:26:40;94399.50;;;25.00;43.29
3178;BME280;38141;42.666;23.344;2023-10-19T12:29:07;94397.25;;;24.05;44.73
3178;BME280;38141;42.666;23.344;2023-10-19T12:31:39;94390.31;;;24.39;43.90
3178;BME280;38141;42.666;23.344;2023-10-19T12:34:06;94387.47;;;24.68;44.14
3178;BME280;38141;42.666;23.344;2023-10-19T12:36:36;94395.22;;;24.99;43.03
3178;BME280;38141;42.666;23.344;2023-10-19T12:39:03;94389.00;;;25.24;42.58
3178;BME280;38141;42.666;23.344;2023-10-19T12:41:32;94381.03;;;24.77;43.79
3178;BME280;38141;42.666;23.344;2023-10-19T12:43:59;94372.06;;;24.47;44.18
3178;BME280;38141;42.666;23.344;2023-10-19T12:46:28;94375.25;;;24.75;43.61
3178;BME280;38141;42.666;23.344;2023-10-19T12:48:56;94369.09;;;24.51;44.16
3178;BME280;38141;42.666;23.344;2023-10-19T12:51:25;94371.63;;;24.69;44.06
3178;BME280;38141;42.666;23.344;2023-10-19T12:53:54;94369.69;;;24.40;43.91
3178;BME280;38141;42.666;23.344;2023-10-19T12:56:21;94359.22;;;24.15;44.04
3178;BME280;38141;42.666;23.344;2023-10-19T12:58:50;94372.09;;;24.18;44.43
3178;BME280;38141;42.666;23.344;2023-10-19T13:01:17;94359.47;;;24.46;43.90
3178;BME280;38141;42.666;23.344;2023-10-19T13:03:45;94369.06;;;24.65;43.36
3178;BME280;38141;42.666;23.344;2023-10-19T13:06:13;94364.97;;;24.61;43.87
3178;BME280;38141;42.666;23.344;2023-10-19T13:08:40;94363.03;;;24.32;44.77
3178;BME280;38141;42.666;23.344;2023-10-19T13:11:09;94359.75;;;24.48;44.53
3178;BME280;38141;42.666;23.344;2023-10-19T13:13:39;94358.31;;;24.53;43.75